sensor_id;sensor_type;location;lat;lon;timestamp;temperature;humidity
10133;DHT22;5106;50.926;7.080;2022-10-16T00:00:31;14.00;88.20
10133;DHT22;5106;50.926;7.080;2022-10-16T00:02:56;14.00;88.10
10133;DHT22;5106;50.926;7.080;2022-10-16T00:05:22;14.00;88.20
10133;DHT22;5106;50.926;7.080;2022-10-16T00:07:48;14.00;88.20
10133;DHT22;5106;50.926;7.080;2022-10-16T00:10:13;14.00;88.20
10133;DHT22;5106;50.926;7.080;2022-10-16T00:12:39;14.00;88.20
10133;DHT22;5106;50.926;7.080;2022-10-16T00:15:05;14.00;88.20
10133;DHT22;5106;50.926;7.080;2022-10-16T00:17:31;14.00;88.20
10133;DHT22;5106;50.926;7.080;2022-10-16T00:19:57;14.00;88.20
10133;DHT22;5106;50.926;7.080;2022-10-16T00:22:23;14.00;88.20
10133;DHT22;5106;50.926;7.080;2022-10-16T00:24:49;14.00;88.20
10133;DHT22;5106;50.926;7.080;2022-10-16T00:27:14;14.00;88.10
10133;DHT22;5106;50.926;7.080;2022-10-16T00:29:40;14.00;88.10
10133;DHT22;5106;50.926;7.080;2022-10-16T00:32:06;13.90;87.80
10133;DHT22;5106;50.926;7.080;2022-10-16T00:34:31;13.90;87.80
10133;DHT22;5106;50.926;7.080;2022-10-16T00:36:57;13.90;87.90
10133;DHT22;5106;50.926;7.080;2022-10-16T00:39:22;13.90;88.00
10133;DHT22;5106;50.926;7.080;2022-10-16T00:41:48;13.90;88.00
10133;DHT22;5106;50.926;7.080;2022-10-16T00:47:23;13.90;88.00
10133;DHT22;5106;50.926;7.080;2022-10-16T00:49:51;13.90;87.90
10133;DHT22;5106;50.926;7.080;2022-10-16T00:52:19;13.90;87.80
10133;DHT22;5106;50.926;7.080;2022-10-16T00:54:46;13.90;87.80
10133;DHT22;5106;50.926;7.080;2022-10-16T00:57:12;13.90;87.90
10133;DHT22;5106;50.926;7.080;2022-10-16T00:59:40;13.80;87.80
10133;DHT22;5106;50.926;7.080;2022-10-16T01:02:09;13.80;87.80
10133;DHT22;5106;50.926;7.080;2022-10-16T01:04:52;13.80;87.80
10133;DHT22;5106;50.926;7.080;2022-10-16T01:07:30;13.80;87.70
10133;DHT22;5106;50.926;7.080;2022-10-16T01:12:51;13.80;87.60
10133;DHT22;5106;50.926;7.080;2022-10-16T01:15:55;13.80;87.60
10133;DHT22;5106;50.926;7.080;2022-10-16T01:18:49;13.70;87.70
10133;DHT22;5106;50.926;7.080;2022-10-16T01:21:33;13.70;87.70
10133;DHT22;5106;50.926;7.080;2022-10-16T01:29:16;13.70;87.70
10133;DHT22;5106;50.926;7.080;2022-10-16T01:31:49;13.70;87.70
10133;DHT22;5106;50.926;7.080;2022-10-16T01:34:19;13.70;87.70
10133;DHT22;5106;50.926;7.080;2022-10-16T01:36:55;13.60;87.70
10133;DHT22;5106;50.926;7.080;2022-10-16T01:39:24;13.60;87.70
10133;DHT22;5106;50.926;7.080;2022-10-16T01:42:00;13.60;87.70
10133;DHT22;5106;50.926;7.080;2022-10-16T01:44:29;13.60;87.70
10133;DHT22;5106;50.926;7.080;2022-10-16T01:46:56;13.60;87.70
10133;DHT22;5106;50.926;7.080;2022-10-16T01:49:26;13.60;87.60
10133;DHT22;5106;50.926;7.080;2022-10-16T01:51:56;13.60;87.60
10133;DHT22;5106;50.926;7.080;2022-10-16T01:54:27;13.60;87.70
10133;DHT22;5106;50.926;7.080;2022-10-16T01:56:55;13.60;87.70
10133;DHT22;5106;50.926;7.080;2022-10-16T01:59:24;13.60;87.70
10133;DHT22;5106;50.926;7.080;2022-10-16T02:01:55;13.50;87.70
10133;DHT22;5106;50.926;7.080;2022-10-16T02:04:29;13.50;87.60
10133;DHT22;5106;50.926;7.080;2022-10-16T02:06:57;13.50;87.60
10133;DHT22;5106;50.926;7.080;2022-10-16T02:09:22;13.50;87.70
10133;DHT22;5106;50.926;7.080;2022-10-16T02:11:48;13.50;87.70
10133;DHT22;5106;50.926;7.080;2022-10-16T02:14:15;13.50;87.60
10133;DHT22;5106;50.926;7.080;2022-10-16T02:16:44;13.50;87.60
10133;DHT22;5106;50.926;7.080;2022-10-16T02:19:12;13.50;87.70
10133;DHT22;5106;50.926;7.080;2022-10-16T02:21:58;13.50;87.70
10133;DHT22;5106;50.926;7.080;2022-10-16T02:24:33;13.50;87.60
10133;DHT22;5106;50.926;7.080;2022-10-16T02:27:09;13.40;87.60
10133;DHT22;5106;50.926;7.080;2022-10-16T02:29:40;13.40;87.60
10133;DHT22;5106;50.926;7.080;2022-10-16T02:32:12;13.40;87.70
10133;DHT22;5106;50.926;7.080;2022-10-16T02:34:40;13.40;87.80
10133;DHT22;5106;50.926;7.080;2022-10-16T02:37:06;13.50;87.70
10133;DHT22;5106;50.926;7.080;2022-10-16T02:39:33;13.40;87.70
10133;DHT22;5106;50.926;7.080;2022-10-16T02:41:59;13.50;87.80
10133;DHT22;5106;50.926;7.080;2022-10-16T02:44:24;13.50;87.90
10133;DHT22;5106;50.926;7.080;2022-10-16T02:46:50;13.50;87.90
10133;DHT22;5106;50.926;7.080;2022-10-16T02:49:16;13.50;87.80
10133;DHT22;5106;50.926;7.080;2022-10-16T02:51:41;13.50;87.90
10133;DHT22;5106;50.926;7.080;2022-10-16T02:54:07;13.50;87.90
10133;DHT22;5106;50.926;7.080;2022-10-16T02:56:32;13.50;87.90
10133;DHT22;5106;50.926;7.080;2022-10-16T02:58:58;13.50;87.90
10133;DHT22;5106;50.926;7.080;2022-10-16T03:01:24;13.50;87.90
10133;DHT22;5106;50.926;7.080;2022-10-16T03:03:50;13.50;88.00
10133;DHT22;5106;50.926;7.080;2022-10-16T03:06:16;13.50;87.90
10133;DHT22;5106;50.926;7.080;2022-10-16T03:08:41;13.50;87.80
10133;DHT22;5106;50.926;7.080;2022-10-16T03:11:07;13.40;87.80
10133;DHT22;5106;50.926;7.080;2022-10-16T03:13:32;13.40;88.00
10133;DHT22;5106;50.926;7.080;2022-10-16T03:15:58;13.40;88.00
10133;DHT22;5106;50.926;7.080;2022-10-16T03:18:24;13.40;88.00
10133;DHT22;5106;50.926;7.080;2022-10-16T03:20:49;13.50;88.10
10133;DHT22;5106;50.926;7.080;2022-10-16T03:23:15;13.40;88.10
10133;DHT22;5106;50.926;7.080;2022-10-16T03:25:40;13.50;88.10
10133;DHT22;5106;50.926;7.080;2022-10-16T03:28:06;13.50;88.10
10133;DHT22;5106;50.926;7.080;2022-10-16T03:30:31;13.50;88.10
10133;DHT22;5106;50.926;7.080;2022-10-16T03:32:57;13.50;88.10
10133;DHT22;5106;50.926;7.080;2022-10-16T03:35:24;13.50;88.00
10133;DHT22;5106;50.926;7.080;2022-10-16T03:37:50;13.50;88.00
10133;DHT22;5106;50.926;7.080;2022-10-16T03:40:16;13.50;87.90
10133;DHT22;5106;50.926;7.080;2022-10-16T03:42:43;13.50;87.80
10133;DHT22;5106;50.926;7.080;2022-10-16T03:45:09;13.50;87.90
10133;DHT22;5106;50.926;7.080;2022-10-16T03:47:35;13.50;87.90
10133;DHT22;5106;50.926;7.080;2022-10-16T03:50:00;13.40;87.80
10133;DHT22;5106;50.926;7.080;2022-10-16T03:52:26;13.40;87.90
10133;DHT22;5106;50.926;7.080;2022-10-16T03:54:52;13.40;87.90
10133;DHT22;5106;50.926;7.080;2022-10-16T03:57:18;13.40;87.90
10133;DHT22;5106;50.926;7.080;2022-10-16T03:59:43;13.40;88.00
10133;DHT22;5106;50.926;7.080;2022-10-16T04:02:09;13.40;88.10
10133;DHT22;5106;50.926;7.080;2022-10-16T04:04:35;13.40;88.10
10133;DHT22;5106;50.926;7.080;2022-10-16T04:07:01;13.50;88.10
10133;DHT22;5106;50.926;7.080;2022-10-16T04:09:26;13.50;88.00
10133;DHT22;5106;50.926;7.080;2022-10-16T04:11:52;13.50;88.00
10133;DHT22;5106;50.926;7.080;2022-10-16T04:14:18;13.50;87.90
10133;DHT22;5106;50.926;7.080;2022-10-16T04:16:43;13.50;87.90
10133;DHT22;5106;50.926;7.080;2022-10-16T04:19:10;13.50;87.90
10133;DHT22;5106;50.926;7.080;2022-10-16T04:21:36;13.50;87.90
10133;DHT22;5106;50.926;7.080;2022-10-16T04:24:02;13.50;87.90
10133;DHT22;5106;50.926;7.080;2022-10-16T04:26:28;13.50;87.90
10133;DHT22;5106;50.926;7.080;2022-10-16T04:28:53;13.50;87.90
10133;DHT22;5106;50.926;7.080;2022-10-16T04:31:19;13.50;87.90
10133;DHT22;5106;50.926;7.080;2022-10-16T04:33:45;13.50;87.90
10133;DHT22;5106;50.926;7.080;2022-10-16T04:36:11;13.50;87.90
10133;DHT22;5106;50.926;7.080;2022-10-16T04:38:37;13.50;87.90
10133;DHT22;5106;50.926;7.080;2022-10-16T04:41:03;13.50;87.80
10133;DHT22;5106;50.926;7.080;2022-10-16T04:43:29;13.50;87.90
10133;DHT22;5106;50.926;7.080;2022-10-16T04:45:55;13.50;87.90
10133;DHT22;5106;50.926;7.080;2022-10-16T04:48:21;13.50;87.90
10133;DHT22;5106;50.926;7.080;2022-10-16T04:50:47;13.50;87.90
10133;DHT22;5106;50.926;7.080;2022-10-16T04:53:13;13.50;87.90
10133;DHT22;5106;50.926;7.080;2022-10-16T04:55:39;13.50;87.90
10133;DHT22;5106;50.926;7.080;2022-10-16T04:58:04;13.50;87.90
10133;DHT22;5106;50.926;7.080;2022-10-16T05:00:31;13.50;87.90
10133;DHT22;5106;50.926;7.080;2022-10-16T05:02:56;13.40;87.90
10133;DHT22;5106;50.926;7.080;2022-10-16T05:05:24;13.40;87.80
10133;DHT22;5106;50.926;7.080;2022-10-16T05:07:50;13.40;87.90
10133;DHT22;5106;50.926;7.080;2022-10-16T05:10:16;13.40;87.80
10133;DHT22;5106;50.926;7.080;2022-10-16T05:12:42;13.40;87.80
10133;DHT22;5106;50.926;7.080;2022-10-16T05:15:08;13.40;87.80
10133;DHT22;5106;50.926;7.080;2022-10-16T05:17:34;13.40;87.80
10133;DHT22;5106;50.926;7.080;2022-10-16T05:19:59;13.30;87.80
10133;DHT22;5106;50.926;7.080;2022-10-16T05:22:25;13.30;87.90
10133;DHT22;5106;50.926;7.080;2022-10-16T05:24:50;13.30;87.90
10133;DHT22;5106;50.926;7.080;2022-10-16T05:27:16;13.30;87.90
10133;DHT22;5106;50.926;7.080;2022-10-16T05:29:48;13.30;87.90
10133;DHT22;5106;50.926;7.080;2022-10-16T05:32:15;13.30;87.90
10133;DHT22;5106;50.926;7.080;2022-10-16T05:34:40;13.30;87.90
10133;DHT22;5106;50.926;7.080;2022-10-16T05:37:06;13.30;88.00
10133;DHT22;5106;50.926;7.080;2022-10-16T05:39:32;13.30;88.00
10133;DHT22;5106;50.926;7.080;2022-10-16T05:41:58;13.30;88.00
10133;DHT22;5106;50.926;7.080;2022-10-16T05:44:24;13.20;87.90
10133;DHT22;5106;50.926;7.080;2022-10-16T05:46:49;13.20;87.90
10133;DHT22;5106;50.926;7.080;2022-10-16T05:49:15;13.20;87.80
10133;DHT22;5106;50.926;7.080;2022-10-16T05:51:41;13.20;87.90
10133;DHT22;5106;50.926;7.080;2022-10-16T05:54:07;13.20;87.90
10133;DHT22;5106;50.926;7.080;2022-10-16T05:56:32;13.10;87.90
10133;DHT22;5106;50.926;7.080;2022-10-16T05:58:58;13.20;88.00
10133;DHT22;5106;50.926;7.080;2022-10-16T06:01:23;13.10;88.00
10133;DHT22;5106;50.926;7.080;2022-10-16T06:03:51;13.10;88.00
10133;DHT22;5106;50.926;7.080;2022-10-16T06:06:22;13.10;87.90
10133;DHT22;5106;50.926;7.080;2022-10-16T06:08:49;13.10;88.00
10133;DHT22;5106;50.926;7.080;2022-10-16T06:11:21;13.10;87.90
10133;DHT22;5106;50.926;7.080;2022-10-16T06:13:51;13.10;87.90
10133;DHT22;5106;50.926;7.080;2022-10-16T06:16:17;13.00;87.90
10133;DHT22;5106;50.926;7.080;2022-10-16T06:18:43;13.00;87.90
10133;DHT22;5106;50.926;7.080;2022-10-16T06:21:18;13.00;87.90
10133;DHT22;5106;50.926;7.080;2022-10-16T06:23:44;13.00;88.00
10133;DHT22;5106;50.926;7.080;2022-10-16T06:26:13;13.00;87.90
10133;DHT22;5106;50.926;7.080;2022-10-16T06:28:40;13.00;87.90
10133;DHT22;5106;50.926;7.080;2022-10-16T06:31:06;13.00;87.90
10133;DHT22;5106;50.926;7.080;2022-10-16T06:33:32;13.00;87.80
10133;DHT22;5106;50.926;7.080;2022-10-16T06:36:04;13.00;87.80
10133;DHT22;5106;50.926;7.080;2022-10-16T06:38:30;13.00;87.90
10133;DHT22;5106;50.926;7.080;2022-10-16T06:40:56;13.00;87.80
10133;DHT22;5106;50.926;7.080;2022-10-16T06:43:22;13.00;87.80
10133;DHT22;5106;50.926;7.080;2022-10-16T06:45:54;13.00;87.80
10133;DHT22;5106;50.926;7.080;2022-10-16T06:48:21;13.00;87.80
10133;DHT22;5106;50.926;7.080;2022-10-16T06:51:04;13.10;87.80
10133;DHT22;5106;50.926;7.080;2022-10-16T06:53:33;13.10;87.90
10133;DHT22;5106;50.926;7.080;2022-10-16T06:56:21;13.10;87.80
10133;DHT22;5106;50.926;7.080;2022-10-16T06:58:47;13.20;87.90
10133;DHT22;5106;50.926;7.080;2022-10-16T07:01:14;13.20;87.90
10133;DHT22;5106;50.926;7.080;2022-10-16T07:03:42;13.20;87.90
10133;DHT22;5106;50.926;7.080;2022-10-16T07:06:09;13.30;88.00
10133;DHT22;5106;50.926;7.080;2022-10-16T07:08:37;13.40;88.20
10133;DHT22;5106;50.926;7.080;2022-10-16T07:11:11;13.40;88.30
10133;DHT22;5106;50.926;7.080;2022-10-16T07:13:39;13.50;88.40
10133;DHT22;5106;50.926;7.080;2022-10-16T07:16:10;13.60;88.60
10133;DHT22;5106;50.926;7.080;2022-10-16T07:18:36;13.60;88.50
10133;DHT22;5106;50.926;7.080;2022-10-16T07:21:09;13.70;88.70
10133;DHT22;5106;50.926;7.080;2022-10-16T07:23:35;13.80;88.80
10133;DHT22;5106;50.926;7.080;2022-10-16T07:26:01;13.90;88.70
10133;DHT22;5106;50.926;7.080;2022-10-16T07:28:28;13.90;88.80
10133;DHT22;5106;50.926;7.080;2022-10-16T07:30:53;14.00;88.90
10133;DHT22;5106;50.926;7.080;2022-10-16T07:33:19;14.00;88.80
10133;DHT22;5106;50.926;7.080;2022-10-16T07:35:53;14.10;88.80
10133;DHT22;5106;50.926;7.080;2022-10-16T07:38:20;14.10;88.70
10133;DHT22;5106;50.926;7.080;2022-10-16T07:40:46;14.20;88.70
10133;DHT22;5106;50.926;7.080;2022-10-16T07:43:12;14.20;88.70
10133;DHT22;5106;50.926;7.080;2022-10-16T07:45:49;14.20;88.70
10133;DHT22;5106;50.926;7.080;2022-10-16T07:48:15;14.30;88.60
10133;DHT22;5106;50.926;7.080;2022-10-16T07:50:41;14.30;88.60
10133;DHT22;5106;50.926;7.080;2022-10-16T07:53:07;14.30;88.60
10133;DHT22;5106;50.926;7.080;2022-10-16T07:55:32;14.30;88.60
10133;DHT22;5106;50.926;7.080;2022-10-16T07:57:58;14.30;88.60
10133;DHT22;5106;50.926;7.080;2022-10-16T08:00:24;14.30;88.50
10133;DHT22;5106;50.926;7.080;2022-10-16T08:02:49;14.30;88.50
10133;DHT22;5106;50.926;7.080;2022-10-16T08:05:15;14.30;88.50
10133;DHT22;5106;50.926;7.080;2022-10-16T08:07:41;14.30;88.50
10133;DHT22;5106;50.926;7.080;2022-10-16T08:10:09;14.30;88.50
10133;DHT22;5106;50.926;7.080;2022-10-16T08:12:36;14.40;88.50
10133;DHT22;5106;50.926;7.080;2022-10-16T08:15:02;14.40;88.40
10133;DHT22;5106;50.926;7.080;2022-10-16T08:17:27;14.40;88.40
10133;DHT22;5106;50.926;7.080;2022-10-16T08:19:53;14.50;88.40
10133;DHT22;5106;50.926;7.080;2022-10-16T08:22:18;14.50;88.40
10133;DHT22;5106;50.926;7.080;2022-10-16T08:24:44;14.50;88.40
10133;DHT22;5106;50.926;7.080;2022-10-16T08:27:09;14.60;88.40
10133;DHT22;5106;50.926;7.080;2022-10-16T08:29:35;14.70;88.30
10133;DHT22;5106;50.926;7.080;2022-10-16T08:32:01;14.70;88.20
10133;DHT22;5106;50.926;7.080;2022-10-16T08:34:26;14.80;88.10
10133;DHT22;5106;50.926;7.080;2022-10-16T08:36:55;14.90;88.00
10133;DHT22;5106;50.926;7.080;2022-10-16T08:39:20;14.90;87.90
10133;DHT22;5106;50.926;7.080;2022-10-16T08:44:24;15.10;87.90
10133;DHT22;5106;50.926;7.080;2022-10-16T08:49:41;15.20;87.20
10133;DHT22;5106;50.926;7.080;2022-10-16T08:52:13;15.30;87.10
10133;DHT22;5106;50.926;7.080;2022-10-16T08:54:43;15.30;87.00
10133;DHT22;5106;50.926;7.080;2022-10-16T08:57:13;15.40;86.80
10133;DHT22;5106;50.926;7.080;2022-10-16T08:59:40;15.50;86.50
10133;DHT22;5106;50.926;7.080;2022-10-16T09:07:59;15.80;85.90
10133;DHT22;5106;50.926;7.080;2022-10-16T09:21:44;16.20;84.00
10133;DHT22;5106;50.926;7.080;2022-10-16T09:24:16;16.30;83.10
10133;DHT22;5106;50.926;7.080;2022-10-16T09:26:42;16.40;83.20
10133;DHT22;5106;50.926;7.080;2022-10-16T09:29:12;16.50;83.20
10133;DHT22;5106;50.926;7.080;2022-10-16T09:31:39;16.50;82.50
10133;DHT22;5106;50.926;7.080;2022-10-16T09:34:05;16.60;82.40
10133;DHT22;5106;50.926;7.080;2022-10-16T09:36:41;16.60;82.60
10133;DHT22;5106;50.926;7.080;2022-10-16T09:39:10;16.70;81.30
10133;DHT22;5106;50.926;7.080;2022-10-16T09:41:41;16.70;81.30
10133;DHT22;5106;50.926;7.080;2022-10-16T09:44:35;16.80;80.60
10133;DHT22;5106;50.926;7.080;2022-10-16T09:47:05;16.90;81.60
10133;DHT22;5106;50.926;7.080;2022-10-16T09:49:31;16.90;81.10
10133;DHT22;5106;50.926;7.080;2022-10-16T09:52:05;17.00;80.60
10133;DHT22;5106;50.926;7.080;2022-10-16T09:54:31;17.00;81.10
10133;DHT22;5106;50.926;7.080;2022-10-16T09:57:07;17.10;81.40
10133;DHT22;5106;50.926;7.080;2022-10-16T09:59:33;17.20;79.80
10133;DHT22;5106;50.926;7.080;2022-10-16T10:02:03;17.20;80.60
10133;DHT22;5106;50.926;7.080;2022-10-16T10:04:44;17.30;80.00
10133;DHT22;5106;50.926;7.080;2022-10-16T10:07:28;17.40;79.30
10133;DHT22;5106;50.926;7.080;2022-10-16T10:09:58;17.40;80.30
10133;DHT22;5106;50.926;7.080;2022-10-16T10:12:26;17.50;78.80
10133;DHT22;5106;50.926;7.080;2022-10-16T10:15:02;17.60;78.70
10133;DHT22;5106;50.926;7.080;2022-10-16T10:17:29;17.60;79.50
10133;DHT22;5106;50.926;7.080;2022-10-16T10:19:58;17.60;79.20
10133;DHT22;5106;50.926;7.080;2022-10-16T10:22:41;17.70;79.10
10133;DHT22;5106;50.926;7.080;2022-10-16T10:28:03;17.90;77.60
10133;DHT22;5106;50.926;7.080;2022-10-16T10:36:41;18.00;77.50
10133;DHT22;5106;50.926;7.080;2022-10-16T10:39:29;18.00;76.20
10133;DHT22;5106;50.926;7.080;2022-10-16T10:42:13;18.00;76.50
10133;DHT22;5106;50.926;7.080;2022-10-16T10:56:13;18.30;75.70
10133;DHT22;5106;50.926;7.080;2022-10-16T10:59:02;18.40;75.00
10133;DHT22;5106;50.926;7.080;2022-10-16T11:01:55;18.50;76.70
10133;DHT22;5106;50.926;7.080;2022-10-16T11:07:23;18.70;74.20
10133;DHT22;5106;50.926;7.080;2022-10-16T11:10:08;18.70;73.90
10133;DHT22;5106;50.926;7.080;2022-10-16T11:12:48;18.80;72.90
10133;DHT22;5106;50.926;7.080;2022-10-16T11:15:32;18.80;72.50
10133;DHT22;5106;50.926;7.080;2022-10-16T11:20:32;18.70;71.40
10133;DHT22;5106;50.926;7.080;2022-10-16T11:23:14;18.80;73.40
10133;DHT22;5106;50.926;7.080;2022-10-16T11:25:40;18.80;72.20
10133;DHT22;5106;50.926;7.080;2022-10-16T11:28:15;18.90;73.60
10133;DHT22;5106;50.926;7.080;2022-10-16T11:38:45;18.70;71.60
10133;DHT22;5106;50.926;7.080;2022-10-16T11:41:39;18.60;72.70
10133;DHT22;5106;50.926;7.080;2022-10-16T11:46:48;18.70;73.30
10133;DHT22;5106;50.926;7.080;2022-10-16T11:49:25;18.80;72.30
10133;DHT22;5106;50.926;7.080;2022-10-16T11:55:05;18.90;71.70
10133;DHT22;5106;50.926;7.080;2022-10-16T11:57:48;19.00;69.40
10133;DHT22;5106;50.926;7.080;2022-10-16T12:00:24;19.10;71.40
10133;DHT22;5106;50.926;7.080;2022-10-16T12:03:12;19.20;69.30
10133;DHT22;5106;50.926;7.080;2022-10-16T12:05:51;19.30;68.50
10133;DHT22;5106;50.926;7.080;2022-10-16T12:08:18;19.30;70.80
10133;DHT22;5106;50.926;7.080;2022-10-16T12:10:46;19.40;69.30
10133;DHT22;5106;50.926;7.080;2022-10-16T12:18:39;19.40;70.10
10133;DHT22;5106;50.926;7.080;2022-10-16T12:21:08;19.40;68.40
10133;DHT22;5106;50.926;7.080;2022-10-16T12:23:47;19.30;69.20
10133;DHT22;5106;50.926;7.080;2022-10-16T12:26:14;19.30;70.00
10133;DHT22;5106;50.926;7.080;2022-10-16T12:28:48;19.40;68.70
10133;DHT22;5106;50.926;7.080;2022-10-16T12:31:16;19.30;68.90
10133;DHT22;5106;50.926;7.080;2022-10-16T12:34:20;19.30;70.40
10133;DHT22;5106;50.926;7.080;2022-10-16T12:36:47;19.20;71.70
10133;DHT22;5106;50.926;7.080;2022-10-16T12:39:24;19.20;71.50
10133;DHT22;5106;50.926;7.080;2022-10-16T12:42:05;19.30;71.60
10133;DHT22;5106;50.926;7.080;2022-10-16T12:44:35;19.40;71.50
10133;DHT22;5106;50.926;7.080;2022-10-16T12:47:01;19.40;70.60
10133;DHT22;5106;50.926;7.080;2022-10-16T12:49:37;19.50;71.10
10133;DHT22;5106;50.926;7.080;2022-10-16T12:52:04;19.50;70.70
10133;DHT22;5106;50.926;7.080;2022-10-16T12:54:34;19.50;70.20
10133;DHT22;5106;50.926;7.080;2022-10-16T13:03:05;19.40;70.40
10133;DHT22;5106;50.926;7.080;2022-10-16T13:16:35;19.40;72.70
10133;DHT22;5106;50.926;7.080;2022-10-16T13:24:42;19.50;72.30
10133;DHT22;5106;50.926;7.080;2022-10-16T13:30:21;19.40;72.00
10133;DHT22;5106;50.926;7.080;2022-10-16T13:33:10;19.40;71.80
10133;DHT22;5106;50.926;7.080;2022-10-16T13:38:30;19.30;72.70
10133;DHT22;5106;50.926;7.080;2022-10-16T13:41:01;19.40;73.10
10133;DHT22;5106;50.926;7.080;2022-10-16T13:43:33;19.40;73.10
10133;DHT22;5106;50.926;7.080;2022-10-16T13:46:05;19.40;72.90
10133;DHT22;5106;50.926;7.080;2022-10-16T13:48:37;19.50;73.20
10133;DHT22;5106;50.926;7.080;2022-10-16T13:51:10;19.50;73.00
10133;DHT22;5106;50.926;7.080;2022-10-16T13:53:37;19.50;72.90
10133;DHT22;5106;50.926;7.080;2022-10-16T13:56:10;19.50;73.10
10133;DHT22;5106;50.926;7.080;2022-10-16T13:58:36;19.50;73.30
10133;DHT22;5106;50.926;7.080;2022-10-16T14:01:04;19.40;73.80
10133;DHT22;5106;50.926;7.080;2022-10-16T14:03:31;19.40;74.00
10133;DHT22;5106;50.926;7.080;2022-10-16T14:06:00;19.40;74.10
10133;DHT22;5106;50.926;7.080;2022-10-16T14:08:28;19.50;74.70
10133;DHT22;5106;50.926;7.080;2022-10-16T14:10:56;19.60;74.20
10133;DHT22;5106;50.926;7.080;2022-10-16T14:13:52;19.70;73.70
10133;DHT22;5106;50.926;7.080;2022-10-16T14:16:24;19.80;73.80
10133;DHT22;5106;50.926;7.080;2022-10-16T14:19:03;19.70;74.10
10133;DHT22;5106;50.926;7.080;2022-10-16T14:21:30;19.70;72.90
10133;DHT22;5106;50.926;7.080;2022-10-16T14:23:57;19.70;73.20
10133;DHT22;5106;50.926;7.080;2022-10-16T14:26:26;19.70;73.90
10133;DHT22;5106;50.926;7.080;2022-10-16T14:29:15;19.70;73.90
10133;DHT22;5106;50.926;7.080;2022-10-16T14:31:42;19.70;74.10
10133;DHT22;5106;50.926;7.080;2022-10-16T14:34:34;19.60;73.90
10133;DHT22;5106;50.926;7.080;2022-10-16T14:37:24;19.60;73.60
10133;DHT22;5106;50.926;7.080;2022-10-16T14:39:54;19.60;74.60
10133;DHT22;5106;50.926;7.080;2022-10-16T14:42:23;19.60;74.40
10133;DHT22;5106;50.926;7.080;2022-10-16T14:44:53;19.60;74.70
10133;DHT22;5106;50.926;7.080;2022-10-16T14:47:22;19.50;74.70
10133;DHT22;5106;50.926;7.080;2022-10-16T14:49:51;19.50;75.00
10133;DHT22;5106;50.926;7.080;2022-10-16T14:52:17;19.50;75.50
10133;DHT22;5106;50.926;7.080;2022-10-16T14:54:43;19.40;75.60
10133;DHT22;5106;50.926;7.080;2022-10-16T14:57:19;19.50;75.50
10133;DHT22;5106;50.926;7.080;2022-10-16T14:59:46;19.40;75.60
10133;DHT22;5106;50.926;7.080;2022-10-16T15:04:44;19.30;75.90
10133;DHT22;5106;50.926;7.080;2022-10-16T15:07:09;19.20;76.20
10133;DHT22;5106;50.926;7.080;2022-10-16T15:09:35;19.20;76.40
10133;DHT22;5106;50.926;7.080;2022-10-16T15:12:00;19.10;76.70
10133;DHT22;5106;50.926;7.080;2022-10-16T15:14:26;19.00;77.20
10133;DHT22;5106;50.926;7.080;2022-10-16T15:16:52;19.00;77.30
10133;DHT22;5106;50.926;7.080;2022-10-16T15:19:17;19.00;77.60
10133;DHT22;5106;50.926;7.080;2022-10-16T15:21:43;18.90;77.80
10133;DHT22;5106;50.926;7.080;2022-10-16T15:24:12;18.90;78.30
10133;DHT22;5106;50.926;7.080;2022-10-16T15:26:38;18.80;78.30
10133;DHT22;5106;50.926;7.080;2022-10-16T15:29:04;18.80;78.30
10133;DHT22;5106;50.926;7.080;2022-10-16T15:31:30;18.80;78.40
10133;DHT22;5106;50.926;7.080;2022-10-16T15:33:56;18.70;78.50
10133;DHT22;5106;50.926;7.080;2022-10-16T15:36:28;18.70;78.60
10133;DHT22;5106;50.926;7.080;2022-10-16T15:38:55;18.70;78.70
10133;DHT22;5106;50.926;7.080;2022-10-16T15:41:21;18.60;78.80
10133;DHT22;5106;50.926;7.080;2022-10-16T15:43:48;18.60;79.10
10133;DHT22;5106;50.926;7.080;2022-10-16T15:46:15;18.60;79.20
10133;DHT22;5106;50.926;7.080;2022-10-16T15:48:42;18.60;79.40
10133;DHT22;5106;50.926;7.080;2022-10-16T15:51:09;18.60;79.50
10133;DHT22;5106;50.926;7.080;2022-10-16T15:53:35;18.50;79.60
10133;DHT22;5106;50.926;7.080;2022-10-16T15:56:03;18.50;79.80
10133;DHT22;5106;50.926;7.080;2022-10-16T15:58:28;18.40;80.10
10133;DHT22;5106;50.926;7.080;2022-10-16T16:00:56;18.40;80.20
10133;DHT22;5106;50.926;7.080;2022-10-16T16:03:23;18.40;80.40
10133;DHT22;5106;50.926;7.080;2022-10-16T16:05:49;18.30;80.50
10133;DHT22;5106;50.926;7.080;2022-10-16T16:08:15;18.30;80.60
10133;DHT22;5106;50.926;7.080;2022-10-16T16:10:42;18.30;80.70
10133;DHT22;5106;50.926;7.080;2022-10-16T16:13:07;18.20;80.80
10133;DHT22;5106;50.926;7.080;2022-10-16T16:15:33;18.20;80.90
10133;DHT22;5106;50.926;7.080;2022-10-16T16:17:58;18.20;81.00
10133;DHT22;5106;50.926;7.080;2022-10-16T16:20:27;18.20;81.20
10133;DHT22;5106;50.926;7.080;2022-10-16T16:22:52;18.10;81.20
10133;DHT22;5106;50.926;7.080;2022-10-16T16:25:18;18.10;81.30
10133;DHT22;5106;50.926;7.080;2022-10-16T16:27:44;18.10;81.30
10133;DHT22;5106;50.926;7.080;2022-10-16T16:30:11;18.10;81.40
10133;DHT22;5106;50.926;7.080;2022-10-16T16:32:37;18.00;81.50
10133;DHT22;5106;50.926;7.080;2022-10-16T16:35:03;18.00;81.50
10133;DHT22;5106;50.926;7.080;2022-10-16T16:37:30;18.00;81.50
10133;DHT22;5106;50.926;7.080;2022-10-16T16:39:55;18.00;81.60
10133;DHT22;5106;50.926;7.080;2022-10-16T16:42:24;18.00;81.70
10133;DHT22;5106;50.926;7.080;2022-10-16T16:44:50;17.90;81.80
10133;DHT22;5106;50.926;7.080;2022-10-16T16:47:16;17.90;81.80
10133;DHT22;5106;50.926;7.080;2022-10-16T16:49:42;17.90;81.90
10133;DHT22;5106;50.926;7.080;2022-10-16T16:52:08;17.80;82.00
10133;DHT22;5106;50.926;7.080;2022-10-16T16:54:33;17.80;82.00
10133;DHT22;5106;50.926;7.080;2022-10-16T16:56:59;17.70;82.10
10133;DHT22;5106;50.926;7.080;2022-10-16T16:59:25;17.70;82.10
10133;DHT22;5106;50.926;7.080;2022-10-16T17:01:50;17.70;82.20
10133;DHT22;5106;50.926;7.080;2022-10-16T17:04:16;17.70;82.20
10133;DHT22;5106;50.926;7.080;2022-10-16T17:06:42;17.70;82.30
10133;DHT22;5106;50.926;7.080;2022-10-16T17:09:08;17.70;82.50
10133;DHT22;5106;50.926;7.080;2022-10-16T17:11:35;17.70;82.50
10133;DHT22;5106;50.926;7.080;2022-10-16T17:14:01;17.60;82.60
10133;DHT22;5106;50.926;7.080;2022-10-16T17:16:30;17.60;82.70
10133;DHT22;5106;50.926;7.080;2022-10-16T17:18:59;17.60;82.70
10133;DHT22;5106;50.926;7.080;2022-10-16T17:21:24;17.60;82.70
10133;DHT22;5106;50.926;7.080;2022-10-16T17:23:52;17.50;82.70
10133;DHT22;5106;50.926;7.080;2022-10-16T17:26:18;17.60;82.80
10133;DHT22;5106;50.926;7.080;2022-10-16T17:28:44;17.50;82.80
10133;DHT22;5106;50.926;7.080;2022-10-16T17:33:36;17.60;82.80
10133;DHT22;5106;50.926;7.080;2022-10-16T17:36:02;17.60;82.70
10133;DHT22;5106;50.926;7.080;2022-10-16T17:38:28;17.60;82.80
10133;DHT22;5106;50.926;7.080;2022-10-16T17:40:54;17.60;82.80
10133;DHT22;5106;50.926;7.080;2022-10-16T17:43:19;17.60;82.90
10133;DHT22;5106;50.926;7.080;2022-10-16T17:45:45;17.50;82.90
10133;DHT22;5106;50.926;7.080;2022-10-16T17:48:10;17.50;82.90